createdAt,value
2019-03-09T00:01:01.747Z,7.63
2019-03-09T00:03:31.965Z,6.90
2019-03-09T00:06:03.091Z,7.30
2019-03-09T00:08:33.450Z,8.67
2019-03-09T00:11:04.721Z,8.23
2019-03-09T00:13:34.884Z,6.73
2019-03-09T00:16:04.977Z,6.70
2019-03-09T00:18:35.068Z,8.57
2019-03-09T00:21:05.638Z,8.07
2019-03-09T00:24:03.963Z,7.87
2019-03-09T00:26:41.668Z,8.20
2019-03-09T00:29:19.555Z,7.97
2019-03-09T00:31:53.708Z,9.77
2019-03-09T00:34:23.866Z,7.50
2019-03-09T00:36:54.202Z,5.33
2019-03-09T00:39:24.287Z,6.70
2019-03-09T00:41:54.402Z,8.47
2019-03-09T00:44:24.491Z,9.67
2019-03-09T00:46:54.585Z,6.83
2019-03-09T00:49:25.060Z,8.60
2019-03-09T00:51:55.207Z,7.93
2019-03-09T00:54:25.372Z,8.90
2019-03-09T00:56:55.826Z,7.50
2019-03-09T00:59:25.846Z,10.23
2019-03-09T01:01:56.598Z,8.43
2019-03-09T01:04:27.047Z,10.43
2019-03-09T01:06:57.045Z,7.47
2019-03-09T01:09:27.132Z,7.80
2019-03-09T01:11:57.168Z,9.03
2019-03-09T01:14:27.273Z,7.50
2019-03-09T01:16:57.316Z,6.40
2019-03-09T01:19:27.402Z,8.10
2019-03-09T01:21:57.460Z,6.10
2019-03-09T01:24:29.780Z,7.37
2019-03-09T01:27:00.141Z,6.70
2019-03-09T01:29:30.257Z,7.43
2019-03-09T01:32:00.330Z,6.90
2019-03-09T01:34:30.426Z,6.80
2019-03-09T01:37:00.419Z,5.77
2019-03-09T01:39:30.433Z,4.93
2019-03-09T01:42:00.435Z,5.83
2019-03-09T01:44:30.430Z,6.27
2019-03-09T01:47:00.549Z,7.67
2019-03-09T01:49:30.913Z,4.90
2019-03-09T01:52:01.031Z,5.07
2019-03-09T01:54:31.192Z,3.93
2019-03-09T01:57:01.697Z,3.90
2019-03-09T01:59:31.797Z,4.30
2019-03-09T02:02:01.848Z,4.13
2019-03-09T02:04:31.941Z,4.27
2019-03-09T02:07:01.992Z,3.90
2019-03-09T02:09:32.120Z,3.50
2019-03-09T02:12:02.152Z,4.30
2019-03-09T02:14:32.242Z,3.60
2019-03-09T02:17:02.317Z,3.50
2019-03-09T02:19:32.328Z,3.63
2019-03-09T02:22:02.435Z,3.37
2019-03-09T02:24:32.533Z,4.70
2019-03-09T02:27:04.735Z,4.63
2019-03-09T02:29:34.806Z,4.00
2019-03-09T02:32:04.877Z,3.53
2019-03-09T02:34:34.872Z,4.30
2019-03-09T02:37:04.897Z,4.00
2019-03-09T02:39:49.365Z,4.50
2019-03-09T02:42:19.521Z,4.00
2019-03-09T02:44:49.517Z,3.40
2019-03-09T02:47:25.876Z,3.60
2019-03-09T02:49:56.059Z,3.80
2019-03-09T02:52:26.422Z,3.77
2019-03-09T02:54:56.496Z,3.90
2019-03-09T02:57:26.647Z,4.00
2019-03-09T02:59:56.833Z,3.47
2019-03-09T03:02:39.113Z,3.03
2019-03-09T03:05:09.181Z,3.17
2019-03-09T03:07:39.316Z,3.40
2019-03-09T03:10:09.781Z,3.60
2019-03-09T03:12:41.682Z,3.67
2019-03-09T03:15:11.759Z,3.43
2019-03-09T03:17:42.848Z,3.63
2019-03-09T03:20:13.128Z,3.37
2019-03-09T03:22:43.213Z,3.20
2019-03-09T03:25:13.232Z,3.40
2019-03-09T03:27:43.407Z,3.50
2019-03-09T03:30:13.606Z,3.70
2019-03-09T03:32:43.738Z,3.70
2019-03-09T03:35:13.774Z,4.03
2019-03-09T03:37:43.860Z,3.93
2019-03-09T03:40:13.951Z,4.20
2019-03-09T03:42:43.975Z,4.10
2019-03-09T03:45:14.204Z,4.60
2019-03-09T03:47:44.355Z,5.10
2019-03-09T03:50:15.531Z,5.73
2019-03-09T03:52:45.648Z,5.20
2019-03-09T03:55:15.781Z,5.00
2019-03-09T03:57:46.124Z,5.50
2019-03-09T04:00:16.461Z,6.93
2019-03-09T04:02:46.577Z,5.30
2019-03-09T04:05:16.946Z,6.23
2019-03-09T04:07:47.230Z,5.47
2019-03-09T04:10:17.289Z,5.37
2019-03-09T04:12:48.339Z,5.63
2019-03-09T04:15:18.485Z,5.77
2019-03-09T04:17:48.549Z,6.50
2019-03-09T04:20:18.549Z,6.23
2019-03-09T04:22:48.650Z,5.60
2019-03-09T04:25:18.756Z,7.50
2019-03-09T04:27:48.765Z,6.20
2019-03-09T04:30:18.841Z,6.50
2019-03-09T04:32:49.857Z,7.20
2019-03-09T04:35:19.947Z,6.23
2019-03-09T04:37:49.963Z,7.17
2019-03-09T04:40:19.988Z,9.37
2019-03-09T04:42:50.045Z,8.73
2019-03-09T04:45:20.109Z,7.23
2019-03-09T04:47:50.167Z,7.30
2019-03-09T04:50:20.240Z,6.40
2019-03-09T04:52:50.448Z,6.63
2019-03-09T04:55:20.468Z,9.37
2019-03-09T04:57:50.504Z,6.87
2019-03-09T05:00:20.503Z,6.43
2019-03-09T05:02:50.541Z,8.83
2019-03-09T05:05:20.594Z,8.67
2019-03-09T05:08:06.615Z,9.33
2019-03-09T05:11:01.503Z,9.23
2019-03-09T05:13:43.763Z,7.93
2019-03-09T05:16:13.947Z,7.40
2019-03-09T05:18:44.259Z,9.07
2019-03-09T05:21:14.314Z,8.33
2019-03-09T05:23:44.467Z,9.17
2019-03-09T05:26:14.579Z,8.43
2019-03-09T05:28:46.380Z,9.63
2019-03-09T05:31:16.520Z,7.67
2019-03-09T05:33:46.656Z,7.13
2019-03-09T05:36:17.169Z,8.83
2019-03-09T05:38:47.195Z,9.43
2019-03-09T05:41:17.182Z,9.90
2019-03-09T05:43:47.360Z,9.90
2019-03-09T05:46:17.366Z,10.90
2019-03-09T05:48:47.456Z,10.77
2019-03-09T05:51:17.540Z,10.07
2019-03-09T05:53:47.592Z,7.50
2019-03-09T05:56:17.606Z,8.30
2019-03-09T05:58:47.735Z,8.23
2019-03-09T06:01:17.811Z,9.00
2019-03-09T06:03:47.922Z,9.97
2019-03-09T06:06:19.040Z,7.57
2019-03-09T06:08:50.534Z,9.50
2019-03-09T06:11:20.528Z,8.80
2019-03-09T06:13:50.555Z,8.20
2019-03-09T06:16:20.625Z,8.87
2019-03-09T06:18:50.847Z,11.53
2019-03-09T06:21:20.954Z,10.10
2019-03-09T06:23:50.976Z,9.57
2019-03-09T06:26:20.991Z,10.87
2019-03-09T06:28:51.020Z,13.23
2019-03-09T06:31:21.080Z,10.63
2019-03-09T06:33:53.209Z,8.63
2019-03-09T06:37:05.903Z,11.20
2019-03-09T06:39:47.605Z,9.83
2019-03-09T06:42:33.420Z,16.17
2019-03-09T06:45:03.594Z,9.97
2019-03-09T06:47:33.606Z,9.93
2019-03-09T06:50:03.653Z,12.87
2019-03-09T06:52:33.675Z,10.03
2019-03-09T06:55:03.875Z,10.37
2019-03-09T06:57:34.060Z,11.73
2019-03-09T07:00:41.895Z,9.57
2019-03-09T07:03:12.398Z,10.80
2019-03-09T07:05:42.699Z,8.13
2019-03-09T07:08:12.918Z,11.13
2019-03-09T07:10:43.210Z,11.07
2019-03-09T07:13:13.319Z,10.23
2019-03-09T07:15:45.608Z,9.67
2019-03-09T07:18:17.911Z,8.33
2019-03-09T07:20:48.083Z,10.73
2019-03-09T07:23:19.482Z,10.33
2019-03-09T07:25:51.897Z,11.17
2019-03-09T07:28:22.618Z,10.47
2019-03-09T07:30:56.801Z,9.80
2019-03-09T07:33:28.193Z,10.67
2019-03-09T07:35:58.352Z,11.27
2019-03-09T07:38:28.461Z,9.57
2019-03-09T07:40:58.578Z,14.70
2019-03-09T07:43:28.725Z,12.00
2019-03-09T07:45:58.807Z,9.73
2019-03-09T07:48:29.003Z,13.17
2019-03-09T07:50:59.224Z,9.93
2019-03-09T07:53:29.623Z,11.37
2019-03-09T07:56:00.361Z,10.80
2019-03-09T07:58:30.436Z,10.33
2019-03-09T08:01:01.168Z,11.17
2019-03-09T08:03:34.118Z,11.37
2019-03-09T08:06:06.079Z,12.27
2019-03-09T08:08:36.654Z,12.40
2019-03-09T08:11:07.102Z,11.73
2019-03-09T08:13:37.693Z,13.17
2019-03-09T08:16:08.037Z,8.40
2019-03-09T08:18:38.143Z,9.70
2019-03-09T08:21:08.505Z,9.40
2019-03-09T08:23:38.669Z,14.87
2019-03-09T08:26:08.769Z,12.33
2019-03-09T08:28:38.892Z,12.83
2019-03-09T08:31:09.362Z,11.17
2019-03-09T08:33:41.897Z,14.80
2019-03-09T08:36:12.488Z,13.03
2019-03-09T08:38:45.693Z,13.87
2019-03-09T08:41:15.723Z,11.23
2019-03-09T08:43:45.866Z,14.93
2019-03-09T08:46:16.200Z,11.80
2019-03-09T08:48:46.348Z,10.63
2019-03-09T08:51:16.510Z,14.57
2019-03-09T08:53:46.601Z,12.83
2019-03-09T08:56:16.725Z,10.53
2019-03-09T08:58:47.001Z,14.23
2019-03-09T09:01:17.205Z,13.57
2019-03-09T09:03:47.389Z,14.10
2019-03-09T09:06:17.598Z,12.00
2019-03-09T09:08:47.807Z,15.03
2019-03-09T09:11:17.932Z,12.07
2019-03-09T09:13:48.236Z,14.23
2019-03-09T09:16:18.317Z,15.77
2019-03-09T09:18:48.901Z,18.20
2019-03-09T09:21:18.915Z,15.13
2019-03-09T09:23:48.964Z,13.10
2019-03-09T09:26:19.115Z,12.90
2019-03-09T09:28:49.157Z,12.93
2019-03-09T09:31:19.174Z,12.97
2019-03-09T09:33:49.239Z,13.63
2019-03-09T09:36:19.286Z,17.90
2019-03-09T09:38:49.323Z,12.93
2019-03-09T09:41:19.396Z,16.37
2019-03-09T09:43:49.901Z,13.70
2019-03-09T09:46:19.972Z,16.47
2019-03-09T09:48:50.002Z,19.97
2019-03-09T09:51:20.130Z,18.80
2019-03-09T09:53:50.125Z,18.53
2019-03-09T09:56:20.161Z,17.87
2019-03-09T09:58:50.177Z,16.10
2019-03-09T10:01:20.189Z,19.10
2019-03-09T10:03:50.223Z,17.87
2019-03-09T10:06:20.482Z,16.53
2019-03-09T10:08:50.797Z,14.63
2019-03-09T10:11:20.816Z,15.93
2019-03-09T10:13:50.986Z,17.43
2019-03-09T10:16:21.275Z,16.67
2019-03-09T10:18:51.373Z,18.67
2019-03-09T10:21:22.011Z,16.60
2019-03-09T10:23:52.738Z,18.17
2019-03-09T10:26:25.730Z,16.93
2019-03-09T10:28:54.695Z,17.17
2019-03-09T10:31:24.707Z,17.67
2019-03-09T10:33:55.456Z,18.90
2019-03-09T10:36:25.645Z,19.63
2019-03-09T10:38:55.752Z,17.80
2019-03-09T10:41:29.673Z,13.47
2019-03-09T10:43:59.689Z,16.90
2019-03-09T10:46:29.706Z,16.10
2019-03-09T10:48:59.753Z,13.37
2019-03-09T10:51:29.789Z,17.13
2019-03-09T10:54:00.026Z,11.47
2019-03-09T10:56:30.179Z,15.03
2019-03-09T10:59:00.346Z,14.30
2019-03-09T11:01:30.627Z,16.23
2019-03-09T11:04:03.487Z,15.73
2019-03-09T11:06:33.530Z,17.53
2019-03-09T11:09:05.047Z,14.37
2019-03-09T11:11:35.265Z,20.33
2019-03-09T11:14:05.336Z,18.37
2019-03-09T11:16:35.366Z,23.73
2019-03-09T11:19:05.426Z,14.07
2019-03-09T11:21:35.405Z,18.13
2019-03-09T11:24:06.328Z,19.77
2019-03-09T11:26:38.534Z,18.93
2019-03-09T11:29:09.742Z,18.23
2019-03-09T11:31:39.806Z,18.37
2019-03-09T11:34:10.028Z,16.93
2019-03-09T11:36:40.107Z,19.67
2019-03-09T11:39:17.561Z,18.03
2019-03-09T11:58:07.182Z,21.40
2019-03-09T12:00:38.205Z,21.30
2019-03-09T12:03:08.475Z,22.33
2019-03-09T12:05:38.625Z,22.20
2019-03-09T12:08:12.446Z,24.83
2019-03-09T12:10:42.647Z,18.77
2019-03-09T12:13:12.806Z,23.43
2019-03-09T12:15:43.080Z,21.63
2019-03-09T12:18:13.283Z,24.27
2019-03-09T12:20:43.556Z,24.80
2019-03-09T12:23:19.500Z,26.77
2019-03-09T12:25:49.674Z,24.47
2019-03-09T12:28:19.941Z,21.40
2019-03-09T12:30:50.055Z,30.80
2019-03-09T12:33:20.511Z,24.57
2019-03-09T12:35:50.826Z,26.33
2019-03-09T12:38:20.988Z,23.73
2019-03-09T12:40:51.094Z,25.73
2019-03-09T12:43:21.365Z,26.57
2019-03-09T12:45:51.434Z,29.07
2019-03-09T12:48:21.471Z,23.90
2019-03-09T12:50:51.628Z,24.10
2019-03-09T12:53:21.838Z,25.80
2019-03-09T12:55:52.071Z,22.87
2019-03-09T12:58:25.060Z,28.47
2019-03-09T13:00:55.341Z,27.87
2019-03-09T13:03:25.506Z,26.23
2019-03-09T13:05:55.693Z,23.23
2019-03-09T13:08:25.722Z,26.67
2019-03-09T13:10:56.403Z,24.20
2019-03-09T13:13:26.564Z,26.20
2019-03-09T13:15:56.684Z,20.90
2019-03-09T13:18:26.774Z,20.97
2019-03-09T13:20:57.004Z,25.87
2019-03-09T13:23:27.057Z,22.07
2019-03-09T13:25:57.154Z,26.73
2019-03-09T13:28:27.232Z,27.17
2019-03-09T13:30:57.296Z,26.07
2019-03-09T13:33:27.339Z,24.17
2019-03-09T13:36:00.550Z,22.87
2019-03-09T13:38:30.648Z,23.67
2019-03-09T13:41:00.726Z,23.83
2019-03-09T13:43:30.798Z,23.13
2019-03-09T13:46:00.932Z,23.37
2019-03-09T13:48:33.749Z,19.17
2019-03-09T13:51:03.904Z,18.67
2019-03-09T13:53:33.991Z,20.17
2019-03-09T13:56:04.016Z,16.33
2019-03-09T13:58:34.125Z,23.80
2019-03-09T14:01:04.181Z,18.20
2019-03-09T14:03:34.300Z,18.63
2019-03-09T14:06:04.433Z,25.20
2019-03-09T14:08:34.849Z,21.60
2019-03-09T14:11:05.028Z,18.73
2019-03-09T14:13:37.131Z,17.30
2019-03-09T14:16:07.166Z,17.33
2019-03-09T14:18:37.382Z,18.50
2019-03-09T14:21:07.636Z,21.10
2019-03-09T14:23:37.720Z,15.60
2019-03-09T14:26:07.975Z,16.73
2019-03-09T14:28:38.258Z,17.07
2019-03-09T14:31:08.359Z,19.83
2019-03-09T14:33:38.640Z,15.90
2019-03-09T14:36:08.756Z,21.87
2019-03-09T14:38:38.925Z,20.03
2019-03-09T14:41:09.114Z,16.40
2019-03-09T14:43:39.298Z,20.40
2019-03-09T14:46:09.686Z,16.77
2019-03-09T14:48:39.842Z,17.83
2019-03-09T14:51:09.971Z,21.43
2019-03-09T14:53:40.068Z,15.90
2019-03-09T14:56:10.481Z,18.50
2019-03-09T14:58:40.543Z,17.90
2019-03-09T15:01:10.841Z,17.23
2019-03-09T15:03:40.977Z,13.60
2019-03-09T15:06:11.136Z,17.97
2019-03-09T15:08:41.458Z,19.30
2019-03-09T15:11:11.534Z,15.63
2019-03-09T15:13:41.752Z,18.57
2019-03-09T15:16:11.839Z,16.47
2019-03-09T15:18:43.874Z,17.43
2019-03-09T15:21:14.257Z,20.30
2019-03-09T15:23:44.466Z,19.57
2019-03-09T15:26:14.792Z,16.27
2019-03-09T15:28:44.857Z,17.57
2019-03-09T15:31:15.043Z,20.50
2019-03-09T15:33:45.363Z,18.33
2019-03-09T15:36:15.483Z,18.07
2019-03-09T15:38:45.628Z,20.27
2019-03-09T15:41:17.973Z,24.37
2019-03-09T15:43:48.154Z,22.17
2019-03-09T15:46:18.341Z,21.10
2019-03-09T15:48:48.536Z,20.27
2019-03-09T15:51:18.609Z,21.57
2019-03-09T15:53:48.879Z,20.33
2019-03-09T15:56:19.060Z,23.83
2019-03-09T15:58:49.329Z,23.20
2019-03-09T16:01:19.537Z,23.27
2019-03-09T16:03:50.574Z,27.33
2019-03-09T16:06:21.102Z,26.07
2019-03-09T16:08:51.170Z,28.07
2019-03-09T16:11:21.281Z,24.47
2019-03-09T16:13:51.761Z,26.27
2019-03-09T16:16:21.987Z,26.17
2019-03-09T16:18:52.124Z,24.07
2019-03-09T16:21:22.520Z,26.30
2019-03-09T16:23:52.603Z,22.17
2019-03-09T16:26:22.847Z,22.83
2019-03-09T16:28:52.891Z,23.60
2019-03-09T16:31:23.018Z,22.13
2019-03-09T16:33:53.309Z,23.67
2019-03-09T16:36:23.482Z,20.23
2019-03-09T16:38:53.591Z,24.23
2019-03-09T16:41:23.650Z,20.77
2019-03-09T16:43:53.737Z,22.47
2019-03-09T16:46:23.923Z,17.53
2019-03-09T16:48:54.107Z,18.83
2019-03-09T16:51:24.602Z,21.13
2019-03-09T16:53:54.651Z,20.73
2019-03-09T16:56:24.783Z,24.27
2019-03-09T16:58:55.076Z,21.37
2019-03-09T17:01:25.133Z,21.00
2019-03-09T17:03:55.415Z,16.27
2019-03-09T17:06:25.548Z,19.17
2019-03-09T17:08:57.937Z,18.33
2019-03-09T17:11:28.082Z,21.43
2019-03-09T17:13:58.227Z,16.93
2019-03-09T17:16:28.351Z,22.47
2019-03-09T17:18:58.588Z,18.73
2019-03-09T17:21:28.671Z,17.30
2019-03-09T17:23:58.881Z,19.00
2019-03-09T17:26:29.224Z,17.03
2019-03-09T17:28:59.271Z,17.83
2019-03-09T17:31:29.472Z,15.53
2019-03-09T17:33:59.597Z,14.10
2019-03-09T17:36:30.961Z,15.83
2019-03-09T17:39:01.066Z,14.30
2019-03-09T17:41:31.252Z,15.43
2019-03-09T17:44:01.429Z,19.10
2019-03-09T17:46:31.512Z,16.33
2019-03-09T17:49:01.637Z,17.03
2019-03-09T17:51:31.716Z,12.70
2019-03-09T17:54:01.749Z,14.57
2019-03-09T17:56:31.820Z,16.17
2019-03-09T17:59:01.854Z,19.03
2019-03-09T18:01:32.138Z,13.13
2019-03-09T18:04:02.162Z,15.87
2019-03-09T18:06:32.334Z,12.00
2019-03-09T18:09:02.503Z,17.53
2019-03-09T18:11:32.659Z,14.53
2019-03-09T18:14:07.001Z,14.20
2019-03-09T18:16:34.593Z,15.87
2019-03-09T18:19:04.621Z,17.67
2019-03-09T18:21:34.699Z,18.70
2019-03-09T18:24:04.749Z,21.13
2019-03-09T18:26:34.892Z,20.77
2019-03-09T18:29:04.990Z,19.27
2019-03-09T18:31:35.411Z,21.20
2019-03-09T18:34:05.447Z,23.83
2019-03-09T18:36:39.423Z,28.63
2019-03-09T18:39:09.461Z,24.20
2019-03-09T18:41:39.478Z,26.87
2019-03-09T18:44:09.867Z,33.07
2019-03-09T18:46:39.950Z,30.53
2019-03-09T18:49:09.990Z,28.20
2019-03-09T18:51:40.189Z,32.83
2019-03-09T18:54:10.482Z,29.40
2019-03-09T18:56:40.558Z,26.80
2019-03-09T18:59:10.711Z,28.03
2019-03-09T19:01:41.173Z,32.13
2019-03-09T19:04:11.346Z,29.47
2019-03-09T19:06:41.485Z,29.80
2019-03-09T19:09:12.190Z,26.23
2019-03-09T19:11:42.280Z,31.83
2019-03-09T19:14:12.466Z,32.37
2019-03-09T19:16:42.800Z,31.10
2019-03-09T19:19:13.051Z,30.77
2019-03-09T19:21:43.187Z,27.33
2019-03-09T19:24:13.741Z,32.07
2019-03-09T19:26:43.776Z,28.33
2019-03-09T19:29:13.881Z,28.07
2019-03-09T19:31:43.951Z,31.57
2019-03-09T19:34:14.257Z,24.90
2019-03-09T19:36:44.293Z,30.73
2019-03-09T19:39:14.518Z,31.70
2019-03-09T19:41:44.838Z,26.83
2019-03-09T19:44:15.045Z,32.93
2019-03-09T19:46:45.116Z,28.57
2019-03-09T19:49:17.065Z,34.53
2019-03-09T19:51:47.209Z,32.00
2019-03-09T19:54:17.358Z,28.30
2019-03-09T19:56:47.537Z,27.57
2019-03-09T19:59:17.633Z,30.63
2019-03-09T20:01:47.754Z,35.07
2019-03-09T20:04:17.947Z,27.73
2019-03-09T20:06:48.093Z,28.27
2019-03-09T20:09:18.173Z,31.50
2019-03-09T20:11:48.374Z,30.03
2019-03-09T20:14:18.531Z,27.73
2019-03-09T20:16:48.667Z,29.73
2019-03-09T20:19:18.774Z,31.07
2019-03-09T20:21:48.835Z,28.40
2019-03-09T20:24:19.536Z,31.23
2019-03-09T20:26:49.591Z,26.80
2019-03-09T20:29:19.679Z,31.70
2019-03-09T20:31:50.773Z,25.63
2019-03-09T20:34:20.944Z,25.57
2019-03-09T20:36:51.029Z,28.53
2019-03-09T20:39:21.456Z,28.73
2019-03-09T20:41:51.642Z,27.67
2019-03-09T20:44:22.006Z,24.50
2019-03-09T20:46:52.271Z,27.67
2019-03-09T20:49:24.726Z,27.67
2019-03-09T20:51:54.825Z,27.03
2019-03-09T20:54:24.978Z,31.57
2019-03-09T20:56:57.411Z,27.23
2019-03-09T20:59:27.697Z,33.93
2019-03-09T21:01:59.424Z,30.27
2019-03-09T21:04:29.449Z,27.90
2019-03-09T21:06:59.639Z,30.60
2019-03-09T21:09:29.873Z,27.37
2019-03-09T21:11:59.973Z,24.57
2019-03-09T21:14:30.032Z,30.70
2019-03-09T21:17:00.138Z,27.00
2019-03-09T21:19:30.383Z,32.60
2019-03-09T21:22:00.429Z,32.50
2019-03-09T21:24:30.716Z,27.43
2019-03-09T21:27:00.901Z,29.70
2019-03-09T21:29:31.161Z,27.23
2019-03-09T21:32:01.213Z,25.60
2019-03-09T21:34:31.731Z,28.17
2019-03-09T21:37:02.310Z,33.10
2019-03-09T21:39:32.451Z,30.03
2019-03-09T21:42:02.513Z,25.80
2019-03-09T21:44:32.595Z,22.83
2019-03-09T21:47:02.676Z,26.87
2019-03-09T21:49:32.729Z,24.10
2019-03-09T21:52:02.915Z,23.03
2019-03-09T21:54:33.007Z,24.30
2019-03-09T21:57:03.138Z,26.67
2019-03-09T21:59:33.426Z,29.73
2019-03-09T22:02:03.471Z,22.03
2019-03-09T22:04:33.660Z,23.47
2019-03-09T22:07:04.647Z,26.43
2019-03-09T22:09:34.747Z,22.07
2019-03-09T22:12:04.784Z,21.27
2019-03-09T22:14:34.851Z,25.03
2019-03-09T22:17:04.901Z,22.70
2019-03-09T22:19:35.070Z,25.63
2019-03-09T22:22:05.306Z,24.40
2019-03-09T22:24:35.482Z,24.30
2019-03-09T22:27:05.587Z,23.97
2019-03-09T22:29:35.733Z,24.07
2019-03-09T22:32:05.772Z,26.47
2019-03-09T22:34:35.799Z,25.23
2019-03-09T22:37:05.900Z,23.57
2019-03-09T22:39:35.971Z,26.97
2019-03-09T22:42:06.073Z,24.93
2019-03-09T22:44:36.146Z,23.77
2019-03-09T22:47:11.575Z,26.23
2019-03-09T22:49:38.486Z,18.60
2019-03-09T22:52:08.663Z,25.90
2019-03-09T22:54:39.000Z,28.80
2019-03-09T22:57:09.035Z,26.13
2019-03-09T22:59:39.198Z,25.73
2019-03-09T23:02:09.739Z,30.43
2019-03-09T23:04:39.791Z,26.43
2019-03-09T23:07:09.834Z,20.27
2019-03-09T23:09:39.984Z,25.60
2019-03-09T23:12:10.149Z,24.83
2019-03-09T23:14:40.386Z,27.40
2019-03-09T23:17:10.582Z,27.00
2019-03-09T23:19:40.955Z,19.83
2019-03-09T23:22:10.993Z,29.13
2019-03-09T23:24:41.321Z,22.93
2019-03-09T23:27:11.364Z,23.17
2019-03-09T23:29:41.589Z,25.50
2019-03-09T23:32:11.769Z,24.23
2019-03-09T23:34:42.089Z,24.57
2019-03-09T23:37:12.619Z,23.30
2019-03-09T23:39:42.843Z,22.47
2019-03-09T23:42:12.844Z,23.03
2019-03-09T23:44:42.915Z,25.70
2019-03-09T23:47:13.017Z,23.47
2019-03-09T23:49:43.280Z,33.50
2019-03-09T23:52:14.777Z,29.17
2019-03-09T23:54:44.832Z,25.77
2019-03-09T23:57:14.951Z,28.93
2019-03-09T23:59:45.099Z,31.77
